sensor_id;sensor_type;location;lat;lon;timestamp;pressure;altitude;pressure_sealevel;temperature;humidity
73003;BME280;61184;54.356;-8.550;2023-02-28T00:01:16;103620.65;;;21.31;29.58
73003;BME280;61184;54.356;-8.550;2023-02-28T00:03:42;103625.60;;;21.65;29.43
73003;BME280;61184;54.356;-8.550;2023-02-28T00:06:09;103630.50;;;21.86;28.94
73003;BME280;61184;54.356;-8.550;2023-02-28T00:08:34;103630.05;;;21.99;29.00
73003;BME280;61184;54.356;-8.550;2023-02-28T00:11:01;103623.38;;;21.91;28.83
73003;BME280;61184;54.356;-8.550;2023-02-28T00:13:24;103622.86;;;21.88;28.86
73003;BME280;61184;54.356;-8.550;2023-02-28T00:16:02;103619.27;;;22.23;28.70
73003;BME280;61184;54.356;-8.550;2023-02-28T00:18:15;103623.93;;;21.59;29.39
73003;BME280;61184;54.356;-8.550;2023-02-28T00:20:40;103620.81;;;21.82;28.87
73003;BME280;61184;54.356;-8.550;2023-02-28T00:23:05;103622.32;;;22.11;28.84
73003;BME280;61184;54.356;-8.550;2023-02-28T00:25:31;103625.45;;;22.18;28.75
73003;BME280;61184;54.356;-8.550;2023-02-28T00:27:56;103625.65;;;22.48;28.41
73003;BME280;61184;54.356;-8.550;2023-02-28T00:30:23;103626.11;;;22.35;28.56
73003;BME280;61184;54.356;-8.550;2023-02-28T00:32:48;103636.32;;;22.14;28.77
73003;BME280;61184;54.356;-8.550;2023-02-28T00:37:39;103634.38;;;22.14;28.81
73003;BME280;61184;54.356;-8.550;2023-02-28T00:40:05;103634.52;;;21.50;29.30
73003;BME280;61184;54.356;-8.550;2023-02-28T00:42:34;103635.64;;;21.92;28.79
73003;BME280;61184;54.356;-8.550;2023-02-28T00:44:56;103634.30;;;21.99;29.02
73003;BME280;61184;54.356;-8.550;2023-02-28T00:47:20;103634.92;;;21.86;28.86
73003;BME280;61184;54.356;-8.550;2023-02-28T00:49:49;103637.38;;;22.00;28.70
73003;BME280;61184;54.356;-8.550;2023-02-28T00:52:11;103637.74;;;21.55;29.32
73003;BME280;61184;54.356;-8.550;2023-02-28T00:54:37;103644.58;;;21.68;29.44
73003;BME280;61184;54.356;-8.550;2023-02-28T00:57:02;103644.15;;;22.22;28.98
73003;BME280;61184;54.356;-8.550;2023-02-28T00:59:28;103645.48;;;21.54;29.37
73003;BME280;61184;54.356;-8.550;2023-02-28T01:01:53;103641.50;;;21.91;28.97
73003;BME280;61184;54.356;-8.550;2023-02-28T01:04:31;103642.76;;;21.31;29.88
73003;BME280;61184;54.356;-8.550;2023-02-28T01:06:46;103644.29;;;19.87;31.36
73003;BME280;61184;54.356;-8.550;2023-02-28T01:09:13;103641.93;;;19.87;31.70
73003;BME280;61184;54.356;-8.550;2023-02-28T01:11:36;103642.90;;;20.71;30.72
73003;BME280;61184;54.356;-8.550;2023-02-28T01:14:02;103638.47;;;20.37;31.00
73003;BME280;61184;54.356;-8.550;2023-02-28T01:16:26;103641.00;;;20.09;31.33
73003;BME280;61184;54.356;-8.550;2023-02-28T01:18:52;103637.95;;;20.78;30.56
73003;BME280;61184;54.356;-8.550;2023-02-28T01:21:40;103637.73;;;20.69;30.43
73003;BME280;61184;54.356;-8.550;2023-02-28T01:24:02;103640.07;;;20.99;30.10
73003;BME280;61184;54.356;-8.550;2023-02-28T01:26:39;103641.01;;;21.21;29.83
73003;BME280;61184;54.356;-8.550;2023-02-28T01:28:34;103637.27;;;20.64;30.52
73003;BME280;61184;54.356;-8.550;2023-02-28T01:30:59;103639.28;;;21.24;29.68
73003;BME280;61184;54.356;-8.550;2023-02-28T01:33:25;103637.31;;;20.74;30.19
73003;BME280;61184;54.356;-8.550;2023-02-28T01:35:56;103643.88;;;20.91;30.06
73003;BME280;61184;54.356;-8.550;2023-02-28T01:38:17;103646.23;;;20.94;30.03
73003;BME280;61184;54.356;-8.550;2023-02-28T01:40:45;103643.76;;;20.91;30.04
73003;BME280;61184;54.356;-8.550;2023-02-28T01:43:16;103641.42;;;20.87;30.07
73003;BME280;61184;54.356;-8.550;2023-02-28T01:45:45;103644.10;;;20.83;30.06
73003;BME280;61184;54.356;-8.550;2023-02-28T01:48:07;103645.94;;;21.12;30.05
73003;BME280;61184;54.356;-8.550;2023-02-28T01:50:27;103646.35;;;21.15;29.69
73003;BME280;61184;54.356;-8.550;2023-02-28T01:52:49;103648.51;;;20.82;30.06
73003;BME280;61184;54.356;-8.550;2023-02-28T01:55:15;103650.04;;;20.93;29.92
73003;BME280;61184;54.356;-8.550;2023-02-28T01:57:54;103650.00;;;20.99;29.80
73003;BME280;61184;54.356;-8.550;2023-02-28T02:00:09;103647.23;;;20.92;29.89
73003;BME280;61184;54.356;-8.550;2023-02-28T02:02:31;103646.18;;;21.09;29.64
73003;BME280;61184;54.356;-8.550;2023-02-28T02:05:00;103645.90;;;20.53;30.01
73003;BME280;61184;54.356;-8.550;2023-02-28T02:07:22;103646.93;;;20.80;29.85
73003;BME280;61184;54.356;-8.550;2023-02-28T02:09:47;103651.75;;;20.85;29.82
73003;BME280;61184;54.356;-8.550;2023-02-28T02:12:25;103651.64;;;20.67;30.07
73003;BME280;61184;54.356;-8.550;2023-02-28T02:14:58;103654.22;;;20.71;29.67
73003;BME280;61184;54.356;-8.550;2023-02-28T02:17:38;103652.56;;;20.70;29.96
73003;BME280;61184;54.356;-8.550;2023-02-28T02:22:12;103657.15;;;20.94;29.55
73003;BME280;61184;54.356;-8.550;2023-02-28T02:24:31;103655.31;;;20.63;29.96
73003;BME280;61184;54.356;-8.550;2023-02-28T02:26:56;103652.19;;;20.85;29.64
73003;BME280;61184;54.356;-8.550;2023-02-28T02:36:29;103651.18;;;20.62;29.89
73003;BME280;61184;54.356;-8.550;2023-02-28T02:38:58;103650.35;;;20.71;29.79
73003;BME280;61184;54.356;-8.550;2023-02-28T02:41:23;103652.50;;;20.67;30.05
73003;BME280;61184;54.356;-8.550;2023-02-28T02:43:51;103651.42;;;20.49;30.02
73003;BME280;61184;54.356;-8.550;2023-02-28T02:46:14;103647.18;;;20.37;30.11
73003;BME280;61184;54.356;-8.550;2023-02-28T02:48:45;103648.08;;;20.36;30.10
73003;BME280;61184;54.356;-8.550;2023-02-28T02:51:06;103649.59;;;20.21;30.29
73003;BME280;61184;54.356;-8.550;2023-02-28T02:53:33;103639.77;;;20.31;30.14
73003;BME280;61184;54.356;-8.550;2023-02-28T02:55:54;103642.88;;;20.47;29.93
73003;BME280;61184;54.356;-8.550;2023-02-28T02:58:20;103647.76;;;20.23;30.18
73003;BME280;61184;54.356;-8.550;2023-02-28T03:00:49;103644.35;;;20.31;30.10
73003;BME280;61184;54.356;-8.550;2023-02-28T03:03:10;103653.53;;;20.25;30.20
73003;BME280;61184;54.356;-8.550;2023-02-28T03:05:44;103653.97;;;20.27;30.12
73003;BME280;61184;54.356;-8.550;2023-02-28T03:08:04;103652.15;;;20.27;30.11
73003;BME280;61184;54.356;-8.550;2023-02-28T03:10:32;103652.42;;;20.57;29.79
73003;BME280;61184;54.356;-8.550;2023-02-28T03:12:54;103659.59;;;20.65;30.20
73003;BME280;61184;54.356;-8.550;2023-02-28T03:15:19;103655.28;;;20.63;29.89
73003;BME280;61184;54.356;-8.550;2023-02-28T03:17:53;103657.16;;;20.48;29.85
73003;BME280;61184;54.356;-8.550;2023-02-28T03:20:27;103659.10;;;20.36;29.98
73003;BME280;61184;54.356;-8.550;2023-02-28T03:25:04;103656.99;;;20.53;29.98
73003;BME280;61184;54.356;-8.550;2023-02-28T03:27:26;103656.70;;;20.44;30.10
73003;BME280;61184;54.356;-8.550;2023-02-28T03:29:56;103659.02;;;20.32;30.18
73003;BME280;61184;54.356;-8.550;2023-02-28T03:32:28;103655.77;;;20.20;30.08
73003;BME280;61184;54.356;-8.550;2023-02-28T03:34:43;103659.08;;;20.31;30.29
73003;BME280;61184;54.356;-8.550;2023-02-28T03:37:10;103654.28;;;20.09;30.40
73003;BME280;61184;54.356;-8.550;2023-02-28T03:39:34;103653.39;;;20.57;30.11
73003;BME280;61184;54.356;-8.550;2023-02-28T03:41:59;103651.32;;;20.29;30.18
73003;BME280;61184;54.356;-8.550;2023-02-28T03:44:24;103647.86;;;19.78;30.47
73003;BME280;61184;54.356;-8.550;2023-02-28T03:46:51;103647.24;;;20.30;30.43
73003;BME280;61184;54.356;-8.550;2023-02-28T03:49:17;103646.45;;;19.98;30.48
73003;BME280;61184;54.356;-8.550;2023-02-28T03:51:58;103645.25;;;20.19;30.24
73003;BME280;61184;54.356;-8.550;2023-02-28T03:54:06;103643.47;;;20.23;30.45
73003;BME280;61184;54.356;-8.550;2023-02-28T03:56:33;103641.60;;;19.87;30.29
73003;BME280;61184;54.356;-8.550;2023-02-28T03:58:57;103642.04;;;20.10;30.57
73003;BME280;61184;54.356;-8.550;2023-02-28T04:01:23;103644.99;;;20.29;30.33
73003;BME280;61184;54.356;-8.550;2023-02-28T04:03:45;103644.62;;;20.24;30.39
73003;BME280;61184;54.356;-8.550;2023-02-28T04:06:24;103647.75;;;20.26;30.34
73003;BME280;61184;54.356;-8.550;2023-02-28T04:08:35;103650.86;;;19.98;30.33
73003;BME280;61184;54.356;-8.550;2023-02-28T04:11:05;103647.31;;;20.38;30.14
73003;BME280;61184;54.356;-8.550;2023-02-28T04:13:32;103642.94;;;19.57;30.54
73003;BME280;61184;54.356;-8.550;2023-02-28T04:15:56;103645.18;;;20.08;30.48
73003;BME280;61184;54.356;-8.550;2023-02-28T04:18:30;103649.17;;;20.05;30.18
73003;BME280;61184;54.356;-8.550;2023-02-28T04:20:53;103655.08;;;20.00;30.52
73003;BME280;61184;54.356;-8.550;2023-02-28T04:23:10;103655.84;;;19.93;30.32
73003;BME280;61184;54.356;-8.550;2023-02-28T04:25:35;103657.47;;;20.46;29.97
73003;BME280;61184;54.356;-8.550;2023-02-28T04:28:02;103655.25;;;19.65;30.33
73003;BME280;61184;54.356;-8.550;2023-02-28T04:30:25;103655.93;;;19.67;30.58
73003;BME280;61184;54.356;-8.550;2023-02-28T04:32:50;103654.20;;;19.75;30.50
73003;BME280;61184;54.356;-8.550;2023-02-28T04:35:19;103656.79;;;19.89;30.30
73003;BME280;61184;54.356;-8.550;2023-02-28T04:37:51;103655.17;;;19.90;30.54
73003;BME280;61184;54.356;-8.550;2023-02-28T04:40:10;103652.33;;;20.12;30.31
73003;BME280;61184;54.356;-8.550;2023-02-28T04:42:45;103652.61;;;19.95;30.49
73003;BME280;61184;54.356;-8.550;2023-02-28T04:44:58;103655.40;;;19.62;30.57
73003;BME280;61184;54.356;-8.550;2023-02-28T04:47:24;103659.12;;;19.69;30.48
73003;BME280;61184;54.356;-8.550;2023-02-28T04:49:49;103662.35;;;19.76;30.44
73003;BME280;61184;54.356;-8.550;2023-02-28T04:52:14;103661.02;;;19.64;30.49
73003;BME280;61184;54.356;-8.550;2023-02-28T04:54:43;103664.22;;;19.83;30.55
73003;BME280;61184;54.356;-8.550;2023-02-28T04:57:10;103670.50;;;20.01;30.36
73003;BME280;61184;54.356;-8.550;2023-02-28T04:59:45;103669.37;;;19.69;30.44
73003;BME280;61184;54.356;-8.550;2023-02-28T05:01:56;103672.26;;;19.62;30.53
73003;BME280;61184;54.356;-8.550;2023-02-28T05:04:22;103674.09;;;19.80;30.54
73003;BME280;61184;54.356;-8.550;2023-02-28T05:06:47;103673.70;;;19.65;30.76
73003;BME280;61184;54.356;-8.550;2023-02-28T05:09:13;103672.66;;;19.56;30.54
73003;BME280;61184;54.356;-8.550;2023-02-28T05:11:45;103668.62;;;19.62;30.49
73003;BME280;61184;54.356;-8.550;2023-02-28T05:14:05;103666.44;;;19.57;30.50
73003;BME280;61184;54.356;-8.550;2023-02-28T05:16:33;103671.10;;;19.85;30.48
73003;BME280;61184;54.356;-8.550;2023-02-28T05:18:55;103677.68;;;19.79;30.50
73003;BME280;61184;54.356;-8.550;2023-02-28T05:22:01;103677.89;;;19.82;30.49
73003;BME280;61184;54.356;-8.550;2023-02-28T05:23:56;103682.70;;;20.08;30.20
73003;BME280;61184;54.356;-8.550;2023-02-28T05:26:14;103677.81;;;19.47;30.61
73003;BME280;61184;54.356;-8.550;2023-02-28T05:28:37;103676.80;;;19.77;30.53
73003;BME280;61184;54.356;-8.550;2023-02-28T05:31:02;103676.74;;;19.60;30.73
73003;BME280;61184;54.356;-8.550;2023-02-28T05:33:28;103679.61;;;19.57;30.76
73003;BME280;61184;54.356;-8.550;2023-02-28T05:35:53;103682.42;;;19.58;30.72
73003;BME280;61184;54.356;-8.550;2023-02-28T05:38:19;103686.45;;;19.73;30.53
73003;BME280;61184;54.356;-8.550;2023-02-28T05:40:45;103691.64;;;19.48;30.82
73003;BME280;61184;54.356;-8.550;2023-02-28T05:43:11;103698.13;;;19.47;30.84
73003;BME280;61184;54.356;-8.550;2023-02-28T05:45:40;103700.24;;;19.84;30.38
73003;BME280;61184;54.356;-8.550;2023-02-28T05:48:02;103703.31;;;19.71;30.53
73003;BME280;61184;54.356;-8.550;2023-02-28T05:50:41;103703.58;;;19.49;30.78
73003;BME280;61184;54.356;-8.550;2023-02-28T05:52:53;103709.16;;;19.65;30.59
73003;BME280;61184;54.356;-8.550;2023-02-28T05:55:17;103709.05;;;19.67;30.52
73003;BME280;61184;54.356;-8.550;2023-02-28T05:57:43;103709.51;;;19.33;30.68
73003;BME280;61184;54.356;-8.550;2023-02-28T06:00:10;103707.03;;;19.83;30.58
73003;BME280;61184;54.356;-8.550;2023-02-28T06:02:35;103706.90;;;19.66;30.83
73003;BME280;61184;54.356;-8.550;2023-02-28T06:04:59;103714.75;;;19.28;30.71
73003;BME280;61184;54.356;-8.550;2023-02-28T06:07:25;103714.90;;;19.34;30.91
73003;BME280;61184;54.356;-8.550;2023-02-28T06:09:50;103714.76;;;19.46;30.78
73003;BME280;61184;54.356;-8.550;2023-02-28T06:12:16;103713.80;;;19.83;30.28
73003;BME280;61184;54.356;-8.550;2023-02-28T06:14:41;103713.25;;;19.29;30.97
73003;BME280;61184;54.356;-8.550;2023-02-28T06:17:08;103718.89;;;19.49;30.69
73003;BME280;61184;54.356;-8.550;2023-02-28T06:19:32;103720.65;;;19.50;30.63
73003;BME280;61184;54.356;-8.550;2023-02-28T06:21:58;103718.78;;;19.73;30.65
73003;BME280;61184;54.356;-8.550;2023-02-28T06:24:25;103714.06;;;19.38;30.81
73003;BME280;61184;54.356;-8.550;2023-02-28T06:26:49;103714.90;;;19.58;30.56
73003;BME280;61184;54.356;-8.550;2023-02-28T06:29:15;103720.07;;;20.10;30.19
73003;BME280;61184;54.356;-8.550;2023-02-28T06:31:40;103722.82;;;19.38;30.80
73003;BME280;61184;54.356;-8.550;2023-02-28T06:34:05;103723.47;;;19.42;30.77
73003;BME280;61184;54.356;-8.550;2023-02-28T06:36:31;103722.39;;;19.31;30.83
73003;BME280;61184;54.356;-8.550;2023-02-28T06:38:56;103722.06;;;19.52;30.92
73003;BME280;61184;54.356;-8.550;2023-02-28T06:41:23;103722.49;;;19.39;30.76
73003;BME280;61184;54.356;-8.550;2023-02-28T06:43:47;103724.71;;;19.27;30.85
73003;BME280;61184;54.356;-8.550;2023-02-28T06:46:14;103725.54;;;19.71;30.93
73003;BME280;61184;54.356;-8.550;2023-02-28T06:48:39;103726.41;;;19.85;30.41
73003;BME280;61184;54.356;-8.550;2023-02-28T06:51:10;103731.81;;;19.24;30.91
73003;BME280;61184;54.356;-8.550;2023-02-28T06:53:30;103733.34;;;19.36;30.75
73003;BME280;61184;54.356;-8.550;2023-02-28T06:55:55;103734.87;;;19.37;30.76
73003;BME280;61184;54.356;-8.550;2023-02-28T06:58:20;103737.81;;;19.27;30.84
73003;BME280;61184;54.356;-8.550;2023-02-28T07:00:56;103741.89;;;19.21;30.91
73003;BME280;61184;54.356;-8.550;2023-02-28T07:03:12;103741.40;;;19.12;31.03
73003;BME280;61184;54.356;-8.550;2023-02-28T07:05:38;103739.83;;;19.35;30.76
73003;BME280;61184;54.356;-8.550;2023-02-28T07:08:03;103745.97;;;19.14;30.96
73003;BME280;61184;54.356;-8.550;2023-02-28T07:10:28;103749.37;;;19.25;30.85
73003;BME280;61184;54.356;-8.550;2023-02-28T07:13:15;103749.43;;;19.21;30.90
73003;BME280;61184;54.356;-8.550;2023-02-28T07:15:19;103751.28;;;19.34;30.78
73003;BME280;61184;54.356;-8.550;2023-02-28T07:17:45;103760.62;;;19.27;31.11
73003;BME280;61184;54.356;-8.550;2023-02-28T07:20:11;103766.28;;;19.16;31.00
73003;BME280;61184;54.356;-8.550;2023-02-28T07:22:43;103767.93;;;19.08;31.04
73003;BME280;61184;54.356;-8.550;2023-02-28T07:25:05;103767.55;;;19.25;31.12
73003;BME280;61184;54.356;-8.550;2023-02-28T07:27:29;103771.95;;;19.52;31.08
73003;BME280;61184;54.356;-8.550;2023-02-28T07:29:52;103773.77;;;19.03;31.14
73003;BME280;61184;54.356;-8.550;2023-02-28T07:32:17;103772.55;;;19.34;31.03
73003;BME280;61184;54.356;-8.550;2023-02-28T07:34:43;103771.84;;;19.08;31.04
73003;BME280;61184;54.356;-8.550;2023-02-28T07:37:09;103778.67;;;18.83;31.34
73003;BME280;61184;54.356;-8.550;2023-02-28T07:39:36;103779.22;;;19.05;31.05
73003;BME280;61184;54.356;-8.550;2023-02-28T07:41:59;103785.05;;;19.06;31.33
73003;BME280;61184;54.356;-8.550;2023-02-28T07:44:25;103782.18;;;19.62;31.25
73003;BME280;61184;54.356;-8.550;2023-02-28T07:46:50;103786.48;;;19.05;31.35
73003;BME280;61184;54.356;-8.550;2023-02-28T07:49:17;103787.85;;;19.11;31.31
73003;BME280;61184;54.356;-8.550;2023-02-28T07:51:42;103791.54;;;19.15;31.16
73003;BME280;61184;54.356;-8.550;2023-02-28T07:54:07;103794.68;;;19.03;31.29
73003;BME280;61184;54.356;-8.550;2023-02-28T07:56:33;103796.21;;;19.47;31.14
73003;BME280;61184;54.356;-8.550;2023-02-28T07:58:58;103797.52;;;19.39;30.92
73003;BME280;61184;54.356;-8.550;2023-02-28T08:01:24;103794.82;;;19.48;30.76
73003;BME280;61184;54.356;-8.550;2023-02-28T08:03:49;103796.82;;;18.99;31.06
73003;BME280;61184;54.356;-8.550;2023-02-28T08:06:20;103802.22;;;19.20;31.12
73003;BME280;61184;54.356;-8.550;2023-02-28T08:08:44;103809.43;;;18.99;31.35
73003;BME280;61184;54.356;-8.550;2023-02-28T08:11:06;103809.43;;;18.91;31.48
73003;BME280;61184;54.356;-8.550;2023-02-28T08:13:31;103806.68;;;19.05;31.41
73003;BME280;61184;54.356;-8.550;2023-02-28T08:15:57;103805.69;;;18.96;31.45
73003;BME280;61184;54.356;-8.550;2023-02-28T08:18:22;103813.34;;;18.95;31.42
73003;BME280;61184;54.356;-8.550;2023-02-28T08:20:48;103819.16;;;19.38;30.87
73003;BME280;61184;54.356;-8.550;2023-02-28T08:23:15;103815.96;;;19.42;30.85
73003;BME280;61184;54.356;-8.550;2023-02-28T08:25:40;103816.75;;;19.36;31.17
73003;BME280;61184;54.356;-8.550;2023-02-28T08:28:04;103818.72;;;19.67;30.79
73003;BME280;61184;54.356;-8.550;2023-02-28T08:30:30;103828.63;;;19.50;31.03
73003;BME280;61184;54.356;-8.550;2023-02-28T08:32:55;103829.19;;;19.49;31.03
73003;BME280;61184;54.356;-8.550;2023-02-28T08:35:21;103823.29;;;19.31;30.96
73003;BME280;61184;54.356;-8.550;2023-02-28T08:37:48;103822.64;;;19.04;31.34
73003;BME280;61184;54.356;-8.550;2023-02-28T08:40:12;103830.34;;;19.18;31.47
73003;BME280;61184;54.356;-8.550;2023-02-28T08:42:41;103830.78;;;19.25;31.40
73003;BME280;61184;54.356;-8.550;2023-02-28T08:45:11;103827.48;;;19.33;31.28
73003;BME280;61184;54.356;-8.550;2023-02-28T08:47:38;103829.96;;;19.08;31.39
73003;BME280;61184;54.356;-8.550;2023-02-28T08:49:57;103829.08;;;18.97;31.52
73003;BME280;61184;54.356;-8.550;2023-02-28T08:52:20;103830.73;;;19.22;31.47
73003;BME280;61184;54.356;-8.550;2023-02-28T08:54:48;103828.25;;;19.15;31.65
73003;BME280;61184;54.356;-8.550;2023-02-28T08:57:11;103828.91;;;19.22;31.46
73003;BME280;61184;54.356;-8.550;2023-02-28T08:59:36;103829.13;;;18.97;31.46
73003;BME280;61184;54.356;-8.550;2023-02-28T09:02:02;103831.17;;;19.22;31.37
73003;BME280;61184;54.356;-8.550;2023-02-28T09:04:27;103828.85;;;19.08;31.58
73003;BME280;61184;54.356;-8.550;2023-02-28T09:06:53;103829.13;;;19.43;31.39
73003;BME280;61184;54.356;-8.550;2023-02-28T09:09:18;103832.92;;;19.12;31.49
73003;BME280;61184;54.356;-8.550;2023-02-28T09:11:44;103832.09;;;18.77;31.61
73003;BME280;61184;54.356;-8.550;2023-02-28T09:14:10;103831.50;;;19.03;31.24
73003;BME280;61184;54.356;-8.550;2023-02-28T09:16:35;103833.47;;;18.77;31.59
73003;BME280;61184;54.356;-8.550;2023-02-28T09:19:02;103832.87;;;19.55;31.18
73003;BME280;61184;54.356;-8.550;2023-02-28T09:21:56;103831.88;;;19.34;31.13
73003;BME280;61184;54.356;-8.550;2023-02-28T09:23:51;103834.91;;;19.26;31.22
73003;BME280;61184;54.356;-8.550;2023-02-28T09:26:21;103836.67;;;19.46;31.23
73003;BME280;61184;54.356;-8.550;2023-02-28T09:28:46;103839.81;;;19.57;31.11
73003;BME280;61184;54.356;-8.550;2023-02-28T09:31:12;103846.14;;;19.22;31.21
73003;BME280;61184;54.356;-8.550;2023-02-28T09:33:34;103848.28;;;19.42;31.33
73003;BME280;61184;54.356;-8.550;2023-02-28T09:36:00;103851.73;;;18.97;31.56
73003;BME280;61184;54.356;-8.550;2023-02-28T09:38:24;103848.83;;;19.17;31.29
73003;BME280;61184;54.356;-8.550;2023-02-28T09:40:51;103851.74;;;19.15;31.29
73003;BME280;61184;54.356;-8.550;2023-02-28T09:43:20;103851.20;;;19.27;31.21
73003;BME280;61184;54.356;-8.550;2023-02-28T09:45:44;103857.30;;;19.12;31.37
73003;BME280;61184;54.356;-8.550;2023-02-28T09:48:12;103855.38;;;19.29;31.11
73003;BME280;61184;54.356;-8.550;2023-02-28T09:50:35;103857.25;;;19.15;31.27
73003;BME280;61184;54.356;-8.550;2023-02-28T09:52:58;103851.86;;;19.45;31.22
73003;BME280;61184;54.356;-8.550;2023-02-28T09:55:28;103854.04;;;19.01;31.47
73003;BME280;61184;54.356;-8.550;2023-02-28T09:57:50;103847.34;;;19.17;31.27
73003;BME280;61184;54.356;-8.550;2023-02-28T10:00:18;103850.09;;;19.16;31.28
73003;BME280;61184;54.356;-8.550;2023-02-28T10:02:53;103852.30;;;19.20;31.24
73003;BME280;61184;54.356;-8.550;2023-02-28T10:05:12;103851.37;;;19.44;30.96
73003;BME280;61184;54.356;-8.550;2023-02-28T10:07:43;103849.88;;;19.44;30.94
73003;BME280;61184;54.356;-8.550;2023-02-28T10:10:06;103853.00;;;18.78;31.45
73003;BME280;61184;54.356;-8.550;2023-02-28T10:12:22;103845.97;;;19.23;31.19
73003;BME280;61184;54.356;-8.550;2023-02-28T10:14:49;103842.94;;;19.16;31.34
73003;BME280;61184;54.356;-8.550;2023-02-28T10:17:17;103845.31;;;19.02;31.20
73003;BME280;61184;54.356;-8.550;2023-02-28T10:19:55;103844.98;;;19.36;31.10
73003;BME280;61184;54.356;-8.550;2023-02-28T10:22:10;103841.68;;;19.25;31.01
73003;BME280;61184;54.356;-8.550;2023-02-28T10:24:32;103841.85;;;19.06;31.28
73003;BME280;61184;54.356;-8.550;2023-02-28T10:27:00;103843.28;;;19.31;31.24
73003;BME280;61184;54.356;-8.550;2023-02-28T10:29:20;103849.17;;;19.69;31.07
73003;BME280;61184;54.356;-8.550;2023-02-28T10:31:46;103851.37;;;19.45;31.04
73003;BME280;61184;54.356;-8.550;2023-02-28T10:34:12;103850.76;;;19.05;31.25
73003;BME280;61184;54.356;-8.550;2023-02-28T10:36:37;103854.72;;;19.16;31.42
73003;BME280;61184;54.356;-8.550;2023-02-28T10:41:34;103860.34;;;19.57;30.96
73003;BME280;61184;54.356;-8.550;2023-02-28T10:43:53;103858.36;;;19.27;31.02
73003;BME280;61184;54.356;-8.550;2023-02-28T10:46:20;103858.52;;;19.35;31.25
73003;BME280;61184;54.356;-8.550;2023-02-28T10:49:00;103863.59;;;19.66;31.10
73003;BME280;61184;54.356;-8.550;2023-02-28T10:51:12;103870.36;;;19.46;31.06
73003;BME280;61184;54.356;-8.550;2023-02-28T10:53:39;103869.31;;;19.37;31.18
73003;BME280;61184;54.356;-8.550;2023-02-28T10:56:02;103872.50;;;19.61;31.21
73003;BME280;61184;54.356;-8.550;2023-02-28T10:58:28;103875.42;;;19.16;31.18
73003;BME280;61184;54.356;-8.550;2023-02-28T11:00:59;103876.18;;;19.48;31.33
73003;BME280;61184;54.356;-8.550;2023-02-28T11:03:32;103873.88;;;19.41;31.19
73003;BME280;61184;54.356;-8.550;2023-02-28T11:05:44;103879.00;;;19.33;30.98
73003;BME280;61184;54.356;-8.550;2023-02-28T11:08:13;103880.87;;;19.44;31.16
73003;BME280;61184;54.356;-8.550;2023-02-28T11:10:34;103879.33;;;19.29;31.01
73003;BME280;61184;54.356;-8.550;2023-02-28T11:13:00;103877.85;;;19.53;31.06
73003;BME280;61184;54.356;-8.550;2023-02-28T11:15:27;103876.97;;;19.49;31.09
73003;BME280;61184;54.356;-8.550;2023-02-28T11:17:55;103877.46;;;19.70;31.08
73003;BME280;61184;54.356;-8.550;2023-02-28T11:20:25;103881.97;;;19.38;31.17
73003;BME280;61184;54.356;-8.550;2023-02-28T11:22:44;103878.95;;;19.45;31.09
73003;BME280;61184;54.356;-8.550;2023-02-28T11:25:19;103879.88;;;19.12;31.15
73003;BME280;61184;54.356;-8.550;2023-02-28T11:27:43;103875.70;;;19.54;30.93
73003;BME280;61184;54.356;-8.550;2023-02-28T11:29:58;103872.89;;;19.86;30.79
73003;BME280;61184;54.356;-8.550;2023-02-28T11:32:24;103871.90;;;19.43;31.02
73003;BME280;61184;54.356;-8.550;2023-02-28T11:35:00;103872.28;;;19.31;31.13
73003;BME280;61184;54.356;-8.550;2023-02-28T11:37:18;103869.58;;;19.29;31.15
73003;BME280;61184;54.356;-8.550;2023-02-28T11:39:42;103868.38;;;19.37;31.04
73003;BME280;61184;54.356;-8.550;2023-02-28T11:42:16;103868.31;;;19.43;31.23
73003;BME280;61184;54.356;-8.550;2023-02-28T11:44:41;103867.93;;;19.09;31.09
73003;BME280;61184;54.356;-8.550;2023-02-28T11:46:59;103872.50;;;19.08;31.10
73003;BME280;61184;54.356;-8.550;2023-02-28T11:49:31;103873.87;;;19.19;31.23
73003;BME280;61184;54.356;-8.550;2023-02-28T11:51:53;103872.56;;;19.33;31.05
73003;BME280;61184;54.356;-8.550;2023-02-28T11:56:41;103870.25;;;19.20;30.95
73003;BME280;61184;54.356;-8.550;2023-02-28T11:59:24;103872.95;;;19.27;30.86
73003;BME280;61184;54.356;-8.550;2023-02-28T12:01:40;103875.69;;;19.10;31.09
73003;BME280;61184;54.356;-8.550;2023-02-28T12:06:25;103873.71;;;19.31;31.14
73003;BME280;61184;54.356;-8.550;2023-02-28T12:08:59;103871.24;;;19.50;30.90
73003;BME280;61184;54.356;-8.550;2023-02-28T12:11:41;103871.45;;;19.25;31.20
73003;BME280;61184;54.356;-8.550;2023-02-28T12:14:02;103860.61;;;19.24;31.20
73003;BME280;61184;54.356;-8.550;2023-02-28T12:16:17;103862.76;;;19.14;31.07
73003;BME280;61184;54.356;-8.550;2023-02-28T12:18:41;103864.74;;;19.45;30.94
73003;BME280;61184;54.356;-8.550;2023-02-28T12:20:59;103867.88;;;19.46;30.99
73003;BME280;61184;54.356;-8.550;2023-02-28T12:25:59;103870.47;;;19.30;30.90
73003;BME280;61184;54.356;-8.550;2023-02-28T12:28:13;103870.64;;;19.28;30.91
73003;BME280;61184;54.356;-8.550;2023-02-28T12:30:41;103870.74;;;19.43;31.00
73003;BME280;61184;54.356;-8.550;2023-02-28T12:33:11;103866.18;;;19.19;31.05
73003;BME280;61184;54.356;-8.550;2023-02-28T12:35:43;103865.29;;;19.61;31.09
73003;BME280;61184;54.356;-8.550;2023-02-28T12:37:57;103869.97;;;19.36;31.06
73003;BME280;61184;54.356;-8.550;2023-02-28T12:40:20;103868.98;;;19.35;31.14
73003;BME280;61184;54.356;-8.550;2023-02-28T12:42:48;103873.05;;;19.03;31.23
73003;BME280;61184;54.356;-8.550;2023-02-28T12:45:12;103874.10;;;19.32;31.11
73003;BME280;61184;54.356;-8.550;2023-02-28T12:50:04;103872.28;;;19.17;31.02
73003;BME280;61184;54.356;-8.550;2023-02-28T12:52:31;103875.53;;;19.67;30.93
73003;BME280;61184;54.356;-8.550;2023-02-28T12:54:53;103876.31;;;19.28;30.80
73003;BME280;61184;54.356;-8.550;2023-02-28T12:57:22;103876.68;;;19.08;31.03